createdAt,value
2023-04-20T00:00:37.301Z,102600.44
2023-04-20T00:03:03.937Z,102601.00
2023-04-20T00:05:32.143Z,102587.25
2023-04-20T00:07:59.085Z,102589.91
2023-04-20T00:10:25.614Z,102584.16
2023-04-20T00:12:52.033Z,102581.69
2023-04-20T00:15:18.614Z,102574.88
2023-04-20T00:17:46.336Z,102570.16
2023-04-20T00:20:12.922Z,102570.53
2023-04-20T00:22:39.697Z,102559.66
2023-04-20T00:25:06.606Z,102559.25
2023-04-20T00:27:32.933Z,102556.75
2023-04-20T00:29:59.308Z,102548.13
2023-04-20T00:32:26.082Z,102546.47
2023-04-20T00:34:52.488Z,102534.19
2023-04-20T00:37:18.833Z,102526.41
2023-04-20T00:39:45.208Z,102522.03
2023-04-20T00:42:11.554Z,102512.03
2023-04-20T00:44:37.925Z,102513.25
2023-04-20T00:47:04.377Z,102511.78
2023-04-20T00:49:31.718Z,102492.94
2023-04-20T00:51:58.575Z,102494.59
2023-04-20T00:54:29.844Z,102488.25
2023-04-20T00:56:58.029Z,102479.44
2023-04-20T00:59:24.489Z,102480.25
2023-04-20T01:01:51.166Z,102473.28
2023-04-20T01:04:18.639Z,102465.09
2023-04-20T01:06:45.253Z,102468.59
2023-04-20T01:09:12.446Z,102466.53
2023-04-20T01:11:39.314Z,102467.00
2023-04-20T01:14:05.854Z,102461.47
2023-04-20T01:16:34.879Z,102460.06
2023-04-20T01:19:01.474Z,102459.03
2023-04-20T01:21:28.057Z,102452.69
2023-04-20T01:23:54.518Z,102442.22
2023-04-20T01:26:23.352Z,102446.53
2023-04-20T01:28:49.692Z,102437.91
2023-04-20T01:31:16.307Z,102434.63
2023-04-20T01:33:42.835Z,102431.38
2023-04-20T01:36:10.060Z,102426.22
2023-04-20T01:38:37.052Z,102425.41
2023-04-20T01:41:05.401Z,102421.28
2023-04-20T01:43:36.624Z,102413.50
2023-04-20T01:46:03.966Z,102418.03
2023-04-20T01:48:30.525Z,102416.81
2023-04-20T01:50:56.949Z,102414.53
2023-04-20T01:53:25.190Z,102416.56
2023-04-20T01:55:51.858Z,102408.78
2023-04-20T01:58:18.270Z,102403.47
2023-04-20T02:00:44.768Z,102407.94
2023-04-20T02:03:11.838Z,102399.97
2023-04-20T02:05:38.427Z,102404.91
2023-04-20T02:08:05.215Z,102397.97
2023-04-20T02:10:31.625Z,102389.81
2023-04-20T02:12:58.120Z,102391.69
2023-04-20T02:15:24.573Z,102382.72
2023-04-20T02:17:52.357Z,102386.22
2023-04-20T02:20:20.024Z,102377.81
2023-04-20T02:22:46.551Z,102371.06
2023-04-20T02:25:13.829Z,102369.66
2023-04-20T02:27:40.608Z,102360.03
2023-04-20T02:30:08.311Z,102364.13
2023-04-20T02:32:35.170Z,102356.13
2023-04-20T02:35:02.209Z,102353.25
2023-04-20T02:37:28.687Z,102352.66
2023-04-20T02:39:55.151Z,102339.34
2023-04-20T02:42:21.596Z,102339.34
2023-04-20T02:44:48.117Z,102336.47
2023-04-20T02:47:14.488Z,102331.53
2023-04-20T02:49:40.942Z,102322.94
2023-04-20T02:52:07.463Z,102319.69
2023-04-20T02:54:34.509Z,102320.09
2023-04-20T02:57:01.630Z,102320.47
2023-04-20T02:59:28.142Z,102311.88
2023-04-20T03:01:54.586Z,102316.38
2023-04-20T03:04:22.207Z,102321.09
2023-04-20T03:06:51.017Z,102318.59
2023-04-20T03:09:18.450Z,102307.34
2023-04-20T03:11:48.455Z,102309.56
2023-04-20T03:14:15.123Z,102305.69
2023-04-20T03:16:42.090Z,102304.22
2023-04-20T03:19:09.074Z,102301.16
2023-04-20T03:21:35.532Z,102293.56
2023-04-20T03:24:01.951Z,102285.75
2023-04-20T03:26:28.441Z,102288.81
2023-04-20T03:28:54.869Z,102287.56
2023-04-20T03:31:21.542Z,102286.13
2023-04-20T03:33:48.085Z,102293.72
2023-04-20T03:36:14.568Z,102277.50
2023-04-20T03:38:40.901Z,102288.78
2023-04-20T03:41:08.099Z,102278.50
2023-04-20T03:43:34.992Z,102287.09
2023-04-20T03:46:01.732Z,102270.91
2023-04-20T03:48:28.378Z,102275.22
2023-04-20T03:50:55.123Z,102276.03
2023-04-20T03:53:21.849Z,102270.28
2023-04-20T03:55:48.324Z,102269.81
2023-04-20T03:58:15.011Z,102271.28
2023-04-20T04:00:41.563Z,102272.69
2023-04-20T04:03:08.296Z,102264.47
2023-04-20T04:05:35.004Z,102255.41
2023-04-20T04:08:01.492Z,102246.38
2023-04-20T04:10:27.898Z,102245.34
2023-04-20T04:12:54.229Z,102244.94
2023-04-20T04:15:20.686Z,102244.72
2023-04-20T04:17:53.393Z,102243.91
2023-04-20T04:20:20.078Z,102245.56
2023-04-20T04:22:46.774Z,102224.19
2023-04-20T04:25:13.824Z,102231.19
2023-04-20T04:27:40.771Z,102223.97
2023-04-20T04:30:07.965Z,102216.81
2023-04-20T04:32:35.998Z,102222.94
2023-04-20T04:35:02.692Z,102217.59
2023-04-20T04:37:29.137Z,102209.41
2023-04-20T04:39:55.790Z,102205.69
2023-04-20T04:42:22.364Z,102203.22
2023-04-20T04:44:48.733Z,102204.88
2023-04-20T04:47:17.672Z,102203.00
2023-04-20T04:49:45.537Z,102204.44
2023-04-20T04:52:12.035Z,102202.59
2023-04-20T04:54:38.486Z,102198.09
2023-04-20T04:57:04.958Z,102204.03
2023-04-20T04:59:31.582Z,102203.81
2023-04-20T05:01:58.254Z,102211.81
2023-04-20T05:04:24.780Z,102211.81
2023-04-20T05:06:51.439Z,102218.78
2023-04-20T05:09:17.917Z,102208.31
2023-04-20T05:11:44.595Z,102201.34
2023-04-20T05:14:11.367Z,102198.69
2023-04-20T05:16:37.993Z,102192.50
2023-04-20T05:19:04.894Z,102204.84
2023-04-20T05:21:32.812Z,102201.34
2023-04-20T05:23:59.262Z,102208.53
2023-04-20T05:26:25.793Z,102212.03
2023-04-20T05:28:52.345Z,102202.97
2023-04-20T05:31:18.962Z,102197.81
2023-04-20T05:33:45.935Z,102201.69
2023-04-20T05:36:12.416Z,102202.72
2023-04-20T05:38:38.988Z,102206.00
2023-04-20T05:41:05.713Z,102211.09
2023-04-20T05:43:32.244Z,102209.28
2023-04-20T05:45:58.779Z,102201.66
2023-04-20T05:48:29.844Z,102198.75
2023-04-20T05:50:56.654Z,102194.81
2023-04-20T05:53:23.219Z,102203.22
2023-04-20T05:55:49.925Z,102197.66
2023-04-20T05:58:17.214Z,102196.03
2023-04-20T06:00:44.439Z,102199.31
2023-04-20T06:03:11.121Z,102190.50
2023-04-20T06:05:38.000Z,102195.59
2023-04-20T06:08:04.789Z,102193.91
2023-04-20T06:10:34.034Z,102183.16
2023-04-20T06:13:00.906Z,102186.00
2023-04-20T06:15:27.425Z,102185.13
2023-04-20T06:17:53.961Z,102182.22
2023-04-20T06:20:20.695Z,102176.06
2023-04-20T06:22:47.302Z,102176.50
2023-04-20T06:25:15.457Z,102176.50
2023-04-20T06:27:42.263Z,102182.06
2023-04-20T06:30:09.948Z,102179.03
2023-04-20T06:32:36.810Z,102179.59
2023-04-20T06:35:04.283Z,102176.94
2023-04-20T06:37:30.824Z,102177.41
2023-04-20T06:39:57.294Z,102172.72
2023-04-20T06:42:23.943Z,102172.91
2023-04-20T06:44:50.911Z,102166.78
2023-04-20T06:47:17.746Z,102161.88
2023-04-20T06:49:44.394Z,102168.84
2023-04-20T06:52:10.944Z,102154.88
2023-04-20T06:54:37.321Z,102160.41
2023-04-20T06:57:03.824Z,102163.88
2023-04-20T06:59:30.322Z,102178.63
2023-04-20T07:01:56.758Z,102168.41
2023-04-20T07:04:23.245Z,102175.38
2023-04-20T07:06:53.826Z,102173.53
2023-04-20T07:09:21.046Z,102178.50
2023-04-20T07:11:47.585Z,102178.69
2023-04-20T07:14:14.460Z,102173.34
2023-04-20T07:16:41.013Z,102174.56
2023-04-20T07:19:07.714Z,102184.81
2023-04-20T07:21:35.664Z,102177.66
2023-04-20T07:24:02.713Z,102165.19
2023-04-20T07:26:29.273Z,102170.31
2023-04-20T07:28:55.728Z,102176.56
2023-04-20T07:31:22.406Z,102175.34
2023-04-20T07:33:49.078Z,102178.06
2023-04-20T07:36:15.525Z,102183.59
2023-04-20T07:38:41.922Z,102186.63
2023-04-20T07:41:12.787Z,102190.19
2023-04-20T07:43:39.284Z,102186.56
2023-04-20T07:46:05.860Z,102181.88
2023-04-20T07:48:36.554Z,102184.00
2023-04-20T07:51:03.304Z,102178.03
2023-04-20T07:53:29.827Z,102180.75
2023-04-20T07:58:22.867Z,102183.44
2023-04-20T08:00:49.486Z,102178.09
2023-04-20T08:03:16.299Z,102175.44
2023-04-20T08:05:43.108Z,102174.00
2023-04-20T08:08:09.667Z,102175.44
2023-04-20T08:10:36.689Z,102170.31
2023-04-20T08:13:03.529Z,102167.97
2023-04-20T08:15:30.105Z,102163.97
2023-04-20T08:17:56.799Z,102163.19
2023-04-20T08:20:23.242Z,102160.88
2023-04-20T08:22:50.783Z,102161.91
2023-04-20T08:25:17.507Z,102155.25
2023-04-20T08:27:44.046Z,102153.53
2023-04-20T08:30:10.978Z,102144.06
2023-04-20T08:32:41.021Z,102149.84
2023-04-20T08:35:08.486Z,102145.44
2023-04-20T08:37:35.275Z,102145.31
2023-04-20T08:40:01.761Z,102144.63
2023-04-20T08:42:28.348Z,102138.44
2023-04-20T08:44:54.981Z,102142.81
2023-04-20T08:47:21.545Z,102148.53
2023-04-20T08:49:53.610Z,102147.56
2023-04-20T08:52:20.138Z,102141.75
2023-04-20T08:54:56.180Z,102143.84
2023-04-20T08:57:23.860Z,102142.78
2023-04-20T08:59:50.621Z,102131.41
2023-04-20T09:02:17.202Z,102129.00
2023-04-20T09:04:44.328Z,102126.22
2023-04-20T09:07:18.565Z,102125.66
2023-04-20T09:09:58.970Z,102130.53
2023-04-20T09:12:26.035Z,102122.38
2023-04-20T09:14:53.282Z,102120.38
2023-04-20T09:17:33.174Z,102119.22
2023-04-20T09:19:59.730Z,102120.50
2023-04-20T09:22:34.458Z,102127.25
2023-04-20T09:25:11.721Z,102130.53
2023-04-20T09:27:38.183Z,102119.94
2023-04-20T09:30:06.892Z,102108.09
2023-04-20T09:32:33.805Z,102094.69
2023-04-20T09:35:00.287Z,102101.44
2023-04-20T09:37:27.028Z,102100.16
2023-04-20T09:39:59.241Z,102090.59
2023-04-20T09:42:27.953Z,102114.22
2023-04-20T09:44:55.640Z,102102.56
2023-04-20T09:47:22.471Z,102096.09
2023-04-20T09:49:50.127Z,102095.78
2023-04-20T09:52:18.470Z,102107.41
2023-04-20T09:54:45.779Z,102103.16
2023-04-20T09:57:14.020Z,102101.59
2023-04-20T09:59:44.441Z,102089.72
2023-04-20T10:02:13.125Z,102101.28
2023-04-20T10:04:59.135Z,102097.94
2023-04-20T10:07:31.725Z,102086.47
2023-04-20T10:10:13.194Z,102084.72
2023-04-20T10:12:53.861Z,102074.78
2023-04-20T10:15:21.939Z,102075.88
2023-04-20T10:17:55.082Z,102079.53
2023-04-20T10:20:26.447Z,102084.00
2023-04-20T10:22:55.052Z,102079.78
2023-04-20T10:25:26.742Z,102074.09
2023-04-20T10:27:55.911Z,102074.47
2023-04-20T10:30:23.635Z,102070.91
2023-04-20T10:32:51.216Z,102060.44
2023-04-20T10:35:17.984Z,102064.56
2023-04-20T10:37:52.032Z,102065.41
2023-04-20T10:40:27.153Z,102057.91
2023-04-20T10:42:53.793Z,102059.63
2023-04-20T10:45:21.569Z,102062.06
2023-04-20T10:47:48.142Z,102052.09
2023-04-20T10:50:15.970Z,102059.56
2023-04-20T10:52:43.842Z,102055.50
2023-04-20T10:55:21.287Z,102061.59
2023-04-20T10:57:48.337Z,102057.34
2023-04-20T11:00:20.572Z,102052.97
2023-04-20T11:02:55.225Z,102037.72
2023-04-20T11:05:24.301Z,102041.88
2023-04-20T11:08:03.853Z,102034.31
2023-04-20T11:10:42.092Z,102032.50
2023-04-20T11:13:29.305Z,102033.13
2023-04-20T11:15:55.726Z,102031.28
2023-04-20T11:18:22.498Z,102030.16
2023-04-20T11:20:53.976Z,102037.16
2023-04-20T11:23:27.443Z,102033.38
2023-04-20T11:25:57.544Z,102028.72
2023-04-20T11:28:25.860Z,102027.78
2023-04-20T11:30:52.816Z,102022.81
2023-04-20T11:33:33.784Z,102011.28
2023-04-20T11:36:01.870Z,102017.44
2023-04-20T11:38:33.123Z,102021.34
2023-04-20T11:41:04.748Z,102011.00
2023-04-20T11:43:32.220Z,102023.25
2023-04-20T11:46:01.255Z,102013.28
2023-04-20T11:48:31.612Z,102010.84
2023-04-20T11:50:58.551Z,102016.00
2023-04-20T11:53:25.408Z,102004.56
2023-04-20T11:55:52.017Z,102008.28
2023-04-20T11:58:18.441Z,102018.00
2023-04-20T12:00:45.049Z,102009.25
2023-04-20T12:03:11.579Z,102008.97
2023-04-20T12:05:38.302Z,102011.81
2023-04-20T12:08:08.322Z,102012.09
2023-04-20T12:10:34.999Z,102010.03
2023-04-20T12:13:01.448Z,102009.63
2023-04-20T12:15:28.063Z,102006.94
2023-04-20T12:17:54.656Z,102010.13
2023-04-20T12:20:21.120Z,102009.50
2023-04-20T12:22:47.502Z,102001.16
2023-04-20T12:25:14.092Z,102006.91
2023-04-20T12:27:40.471Z,102002.69
2023-04-20T12:30:09.260Z,101996.03
2023-04-20T12:32:35.694Z,101991.38
2023-04-20T12:35:02.826Z,101996.25
2023-04-20T12:37:29.488Z,101990.25
2023-04-20T12:39:55.914Z,101993.59
2023-04-20T12:42:22.413Z,101988.91
2023-04-20T12:44:48.940Z,101986.22
2023-04-20T12:47:15.394Z,101986.81
2023-04-20T12:49:41.841Z,101988.50
2023-04-20T12:52:08.892Z,101978.75
2023-04-20T12:54:35.505Z,101977.75
2023-04-20T12:57:02.540Z,101982.09
2023-04-20T12:59:29.288Z,101992.34
2023-04-20T13:01:55.739Z,101985.06
2023-04-20T13:04:22.836Z,101973.75
2023-04-20T13:06:49.714Z,101985.53
2023-04-20T13:09:16.242Z,101969.81
2023-04-20T13:11:42.728Z,101994.09
2023-04-20T13:14:09.368Z,101982.78
2023-04-20T13:16:35.794Z,101980.75
2023-04-20T13:19:02.970Z,101989.31
2023-04-20T13:21:29.420Z,101990.94
2023-04-20T13:23:56.940Z,101985.81
2023-04-20T13:26:23.798Z,101983.22
2023-04-20T13:28:50.509Z,101985.09
2023-04-20T13:31:16.966Z,101984.84
2023-04-20T13:33:43.384Z,101979.22
2023-04-20T13:36:09.899Z,101973.28
2023-04-20T13:38:36.522Z,101957.94
2023-04-20T13:41:03.147Z,101956.25
2023-04-20T13:43:29.674Z,101960.16
2023-04-20T13:45:56.189Z,101969.06
2023-04-20T13:48:22.893Z,101963.50
2023-04-20T13:50:49.478Z,101955.69
2023-04-20T13:53:15.925Z,101957.56
2023-04-20T13:55:42.401Z,101955.50
2023-04-20T13:58:08.914Z,101946.72
2023-04-20T14:00:35.346Z,101946.72
2023-04-20T14:03:02.239Z,101953.00
2023-04-20T14:05:28.898Z,101940.78
2023-04-20T14:07:55.614Z,101939.91
2023-04-20T14:10:22.218Z,101951.25
2023-04-20T14:12:48.662Z,101941.91
2023-04-20T14:15:15.295Z,101935.44
2023-04-20T14:17:41.769Z,101929.03
2023-04-20T14:20:09.332Z,101937.06
2023-04-20T14:22:37.331Z,101941.38
2023-04-20T14:25:05.006Z,101930.16
2023-04-20T14:27:32.992Z,101935.53
2023-04-20T14:29:59.507Z,101937.56
2023-04-20T14:32:25.939Z,101934.69
2023-04-20T14:34:52.389Z,101931.66
2023-04-20T14:37:19.831Z,101918.38
2023-04-20T14:39:46.358Z,101931.72
2023-04-20T14:42:14.229Z,101920.28
2023-04-20T14:44:40.808Z,101914.84
2023-04-20T14:47:07.310Z,101916.53
2023-04-20T14:49:33.753Z,101914.06
2023-04-20T14:52:00.247Z,101910.56
2023-04-20T14:54:26.799Z,101901.97
2023-04-20T14:56:53.225Z,101909.22
2023-04-20T14:59:19.899Z,101910.22
2023-04-20T15:02:01.267Z,101911.44
2023-04-20T15:04:29.598Z,101916.44
2023-04-20T15:06:56.122Z,101910.06
2023-04-20T15:09:22.550Z,101904.38
2023-04-20T15:11:48.952Z,101909.25
2023-04-20T15:14:15.518Z,101908.13
2023-04-20T15:16:42.218Z,101898.97
2023-04-20T15:19:08.760Z,101901.91
2023-04-20T15:21:35.455Z,101896.00
2023-04-20T15:24:01.852Z,101897.63
2023-04-20T15:26:28.305Z,101895.47
2023-04-20T15:28:55.083Z,101892.22
2023-04-20T15:31:21.584Z,101884.63
2023-04-20T15:33:48.421Z,101890.59
2023-04-20T15:36:18.295Z,101878.69
2023-04-20T15:38:44.957Z,101882.75
2023-04-20T15:41:11.398Z,101881.38
2023-04-20T15:43:39.432Z,101884.00
2023-04-20T15:46:06.039Z,101887.97
2023-04-20T15:48:32.487Z,101886.81
2023-04-20T15:50:59.249Z,101890.03
2023-04-20T15:53:25.716Z,101885.16
2023-04-20T15:55:52.470Z,101888.91
2023-04-20T15:58:19.206Z,101882.28
2023-04-20T16:00:46.295Z,101880.81
2023-04-20T16:03:13.077Z,101874.13
2023-04-20T16:05:39.801Z,101864.72
2023-04-20T16:08:06.245Z,101868.53
2023-04-20T16:10:32.790Z,101862.25
2023-04-20T16:12:59.301Z,101861.34
2023-04-20T16:15:25.897Z,101866.16
2023-04-20T16:17:53.688Z,101871.47
2023-04-20T16:20:20.283Z,101886.03
2023-04-20T16:22:46.680Z,101888.41
2023-04-20T16:25:22.297Z,101896.72
2023-04-20T16:27:50.736Z,101892.34
2023-04-20T16:30:17.621Z,101888.72
2023-04-20T16:32:44.069Z,101887.06
2023-04-20T16:35:10.556Z,101891.78
2023-04-20T16:37:36.910Z,101886.78
2023-04-20T16:40:05.460Z,101879.28
2023-04-20T16:42:32.094Z,101876.28
2023-04-20T16:44:58.526Z,101871.47
2023-04-20T16:47:25.019Z,101874.09
2023-04-20T16:49:51.525Z,101878.13
2023-04-20T16:52:18.080Z,101875.50
2023-04-20T16:54:44.701Z,101867.94
2023-04-20T16:57:11.147Z,101860.63
2023-04-20T16:59:37.592Z,101872.69
2023-04-20T17:02:04.149Z,101873.19
2023-04-20T17:04:30.805Z,101866.09
2023-04-20T17:06:57.429Z,101867.94
2023-04-20T17:09:23.840Z,101875.47
2023-04-20T17:11:50.266Z,101876.78
2023-04-20T17:14:17.164Z,101876.22
2023-04-20T17:16:44.071Z,101884.00
2023-04-20T17:19:10.563Z,101886.78
2023-04-20T17:21:37.068Z,101881.66
2023-04-20T17:24:03.972Z,101880.78
2023-04-20T17:26:30.468Z,101878.56
2023-04-20T17:28:56.907Z,101884.91
2023-04-20T17:31:23.479Z,101872.97
2023-04-20T17:33:49.988Z,101869.84
2023-04-20T17:36:16.789Z,101870.13
2023-04-20T17:38:43.283Z,101887.94
2023-04-20T17:41:10.058Z,101883.34
2023-04-20T17:43:40.297Z,101885.44
2023-04-20T17:46:07.704Z,101886.25
2023-04-20T17:48:34.578Z,101889.28
2023-04-20T17:51:01.050Z,101882.25
2023-04-20T17:53:27.757Z,101884.97
2023-04-20T17:55:54.224Z,101887.41
2023-04-20T17:58:20.671Z,101894.94
2023-04-20T18:00:47.683Z,101904.91
2023-04-20T18:03:14.842Z,101902.72
2023-04-20T18:05:41.915Z,101905.34
2023-04-20T18:08:10.090Z,101906.88
2023-04-20T18:10:37.629Z,101909.72
2023-04-20T18:13:05.261Z,101909.56
2023-04-20T18:15:31.934Z,101909.25
2023-04-20T18:17:58.641Z,101907.22
2023-04-20T18:20:25.267Z,101907.16
2023-04-20T18:22:51.819Z,101905.75
2023-04-20T18:25:19.365Z,101905.09
2023-04-20T18:27:46.113Z,101913.38
2023-04-20T18:30:13.773Z,101907.94
2023-04-20T18:32:40.814Z,101903.84
2023-04-20T18:35:08.053Z,101907.22
2023-04-20T18:37:34.463Z,101913.00
2023-04-20T18:40:00.948Z,101909.22
2023-04-20T18:42:27.434Z,101908.06
2023-04-20T18:44:53.855Z,101903.16
2023-04-20T18:47:22.040Z,101909.28
2023-04-20T18:49:48.451Z,101912.69
2023-04-20T18:52:15.020Z,101910.75
2023-04-20T18:54:41.703Z,101917.47
2023-04-20T18:57:08.509Z,101914.97
2023-04-20T18:59:34.928Z,101923.78
2023-04-20T19:02:01.369Z,101921.19
2023-04-20T19:04:29.456Z,101928.06
2023-04-20T19:06:55.952Z,101932.78
2023-04-20T19:09:22.462Z,101926.88
2023-04-20T19:11:49.888Z,101929.97
2023-04-20T19:14:16.736Z,101939.81
2023-04-20T19:16:43.440Z,101941.59
2023-04-20T19:19:10.148Z,101943.66
2023-04-20T19:21:36.587Z,101938.94
2023-04-20T19:24:03.242Z,101932.13
2023-04-20T19:26:29.636Z,101944.16
2023-04-20T19:28:57.767Z,101945.69
2023-04-20T19:31:24.238Z,101949.09
2023-04-20T19:33:50.782Z,101951.69
2023-04-20T19:36:19.179Z,101945.69
2023-04-20T19:38:45.664Z,101937.47
2023-04-20T19:41:12.428Z,101935.25
2023-04-20T19:43:38.856Z,101926.31
2023-04-20T19:46:09.524Z,101927.50
2023-04-20T19:48:36.745Z,101927.72
2023-04-20T19:51:03.913Z,101938.59
2023-04-20T19:53:30.617Z,101929.63
2023-04-20T19:55:57.162Z,101929.78
2023-04-20T19:58:23.598Z,101936.19
2023-04-20T20:00:50.431Z,101936.91
2023-04-20T20:03:17.010Z,101941.69
2023-04-20T20:05:43.780Z,101952.91
2023-04-20T20:08:11.574Z,101947.19
2023-04-20T20:10:37.994Z,101948.94
2023-04-20T20:13:04.813Z,101945.94
2023-04-20T20:15:32.156Z,101944.44
2023-04-20T20:17:59.349Z,101936.41
2023-04-20T20:20:32.469Z,101946.78
2023-04-20T20:22:59.962Z,101947.75
2023-04-20T20:25:26.476Z,101946.00
2023-04-20T20:27:52.864Z,101940.66
2023-04-20T20:30:19.334Z,101928.56
2023-04-20T20:32:46.457Z,101933.78
2023-04-20T20:35:13.280Z,101925.75
2023-04-20T20:37:40.965Z,101921.69
2023-04-20T20:40:12.186Z,101927.06
2023-04-20T20:42:39.978Z,101924.97
2023-04-20T20:45:10.816Z,101927.84
2023-04-20T20:47:37.308Z,101919.81
2023-04-20T20:50:04.114Z,101918.69
2023-04-20T20:52:30.863Z,101917.53
2023-04-20T20:54:57.243Z,101918.81
2023-04-20T20:57:23.771Z,101903.69
2023-04-20T20:59:53.410Z,101908.69
2023-04-20T21:02:20.104Z,101912.09
2023-04-20T21:04:46.793Z,101914.97
2023-04-20T21:07:13.353Z,101904.50
2023-04-20T21:09:40.085Z,101896.50
2023-04-20T21:12:06.576Z,101898.56
2023-04-20T21:14:33.065Z,101899.88
2023-04-20T21:16:59.637Z,101899.53
2023-04-20T21:19:26.160Z,101893.47
2023-04-20T21:21:52.605Z,101891.03
2023-04-20T21:24:19.145Z,101901.75
2023-04-20T21:26:45.832Z,101907.53
2023-04-20T21:29:12.206Z,101909.63
2023-04-20T21:31:38.581Z,101902.06
2023-04-20T21:34:05.390Z,101894.03
2023-04-20T21:36:32.724Z,101900.69
2023-04-20T21:38:59.187Z,101891.03
2023-04-20T21:41:28.233Z,101884.28
2023-04-20T21:43:54.678Z,101888.47
2023-04-20T21:46:21.344Z,101900.44
2023-04-20T21:48:47.874Z,101890.81
2023-04-20T21:51:15.940Z,101898.00
2023-04-20T21:53:42.761Z,101893.13
2023-04-20T21:56:09.248Z,101898.47
2023-04-20T21:58:36.017Z,101897.66
2023-04-20T22:01:03.051Z,101903.81
2023-04-20T22:03:31.386Z,101905.31
2023-04-20T22:05:58.824Z,101908.44
2023-04-20T22:08:25.819Z,101902.31
2023-04-20T22:10:52.394Z,101911.81
2023-04-20T22:13:18.896Z,101915.53
2023-04-20T22:15:47.180Z,101911.47
2023-04-20T22:18:13.773Z,101912.88
2023-04-20T22:20:40.342Z,101917.41
2023-04-20T22:23:06.711Z,101913.91
2023-04-20T22:25:33.144Z,101903.81
2023-04-20T22:27:59.522Z,101884.28
2023-04-20T22:30:26.140Z,101888.00
2023-04-20T22:32:52.553Z,101898.09
2023-04-20T22:35:18.983Z,101901.38
2023-04-20T22:37:45.639Z,101896.59
2023-04-20T22:40:13.246Z,101894.16
2023-04-20T22:42:40.122Z,101889.25
2023-04-20T22:45:07.241Z,101876.13
2023-04-20T22:47:33.677Z,101882.53
2023-04-20T22:50:00.273Z,101877.16
2023-04-20T22:52:26.902Z,101875.31
2023-04-20T22:54:53.359Z,101868.34
2023-04-20T22:57:19.954Z,101868.56
2023-04-20T22:59:48.626Z,101870.88
2023-04-20T23:02:15.428Z,101867.41
2023-04-20T23:04:43.576Z,101863.31
2023-04-20T23:07:10.279Z,101862.53
2023-04-20T23:09:39.862Z,101853.69
2023-04-20T23:12:11.516Z,101846.25
2023-04-20T23:14:42.245Z,101839.50
2023-04-20T23:17:09.243Z,101840.56
2023-04-20T23:19:35.746Z,101834.16
2023-04-20T23:22:03.245Z,101814.63
2023-04-20T23:24:29.680Z,101826.94
2023-04-20T23:26:57.471Z,101812.19
2023-04-20T23:29:24.029Z,101796.16
2023-04-20T23:31:50.639Z,101787.34
2023-04-20T23:34:17.579Z,101782.22
2023-04-20T23:36:43.912Z,101782.00
2023-04-20T23:39:10.324Z,101793.25
2023-04-20T23:41:36.847Z,101789.78
2023-04-20T23:44:03.363Z,101786.06
2023-04-20T23:46:29.833Z,101791.41
2023-04-20T23:48:56.306Z,101802.56
2023-04-20T23:51:22.849Z,101798.03
2023-04-20T23:53:49.230Z,101796.97
2023-04-20T23:56:15.740Z,101787.81
